sensor_id;sensor_type;location;lat;lon;timestamp;temperature;humidity
17740;DHT22;8990;33.226;-97.150;2022-10-16T00:01:50;30.20;99.90
17740;DHT22;8990;33.226;-97.150;2022-10-16T00:04:23;30.20;99.90
17740;DHT22;8990;33.226;-97.150;2022-10-16T00:06:52;30.10;99.90
17740;DHT22;8990;33.226;-97.150;2022-10-16T00:09:22;30.10;99.90
17740;DHT22;8990;33.226;-97.150;2022-10-16T00:11:51;30.00;99.90
17740;DHT22;8990;33.226;-97.150;2022-10-16T00:14:21;30.00;99.90
17740;DHT22;8990;33.226;-97.150;2022-10-16T00:16:50;30.00;99.90
17740;DHT22;8990;33.226;-97.150;2022-10-16T00:19:20;29.90;99.90
17740;DHT22;8990;33.226;-97.150;2022-10-16T00:21:51;29.90;99.90
17740;DHT22;8990;33.226;-97.150;2022-10-16T00:24:20;29.90;99.90
17740;DHT22;8990;33.226;-97.150;2022-10-16T00:26:50;29.90;99.90
17740;DHT22;8990;33.226;-97.150;2022-10-16T00:29:19;29.90;99.90
17740;DHT22;8990;33.226;-97.150;2022-10-16T00:31:49;29.80;99.90
17740;DHT22;8990;33.226;-97.150;2022-10-16T00:34:18;29.70;99.90
17740;DHT22;8990;33.226;-97.150;2022-10-16T00:36:50;29.70;99.90
17740;DHT22;8990;33.226;-97.150;2022-10-16T00:39:19;29.60;99.90
17740;DHT22;8990;33.226;-97.150;2022-10-16T00:41:49;29.60;99.90
17740;DHT22;8990;33.226;-97.150;2022-10-16T00:44:47;29.50;99.90
17740;DHT22;8990;33.226;-97.150;2022-10-16T00:47:22;29.40;99.90
17740;DHT22;8990;33.226;-97.150;2022-10-16T00:49:58;29.40;99.90
17740;DHT22;8990;33.226;-97.150;2022-10-16T00:52:29;29.30;99.90
17740;DHT22;8990;33.226;-97.150;2022-10-16T00:54:59;29.20;99.90
17740;DHT22;8990;33.226;-97.150;2022-10-16T00:57:28;29.20;99.90
17740;DHT22;8990;33.226;-97.150;2022-10-16T00:59:57;29.10;99.90
17740;DHT22;8990;33.226;-97.150;2022-10-16T01:02:27;29.10;99.90
17740;DHT22;8990;33.226;-97.150;2022-10-16T01:04:56;29.00;99.90
17740;DHT22;8990;33.226;-97.150;2022-10-16T01:07:36;29.00;99.90
17740;DHT22;8990;33.226;-97.150;2022-10-16T01:10:17;29.00;99.90
17740;DHT22;8990;33.226;-97.150;2022-10-16T01:12:58;29.00;99.90
17740;DHT22;8990;33.226;-97.150;2022-10-16T01:15:30;28.90;99.90
17740;DHT22;8990;33.226;-97.150;2022-10-16T01:18:07;28.90;99.90
17740;DHT22;8990;33.226;-97.150;2022-10-16T01:20:42;28.90;99.90
17740;DHT22;8990;33.226;-97.150;2022-10-16T01:23:28;28.80;99.90
17740;DHT22;8990;33.226;-97.150;2022-10-16T01:26:15;28.80;99.90
17740;DHT22;8990;33.226;-97.150;2022-10-16T01:28:55;28.70;99.90
17740;DHT22;8990;33.226;-97.150;2022-10-16T01:31:27;28.70;99.90
17740;DHT22;8990;33.226;-97.150;2022-10-16T01:34:03;28.70;99.90
17740;DHT22;8990;33.226;-97.150;2022-10-16T01:36:37;28.70;99.90
17740;DHT22;8990;33.226;-97.150;2022-10-16T01:39:10;28.70;99.90
17740;DHT22;8990;33.226;-97.150;2022-10-16T01:41:41;28.70;99.90
17740;DHT22;8990;33.226;-97.150;2022-10-16T01:44:17;28.70;99.90
17740;DHT22;8990;33.226;-97.150;2022-10-16T01:46:50;28.70;99.90
17740;DHT22;8990;33.226;-97.150;2022-10-16T01:49:21;28.70;99.90
17740;DHT22;8990;33.226;-97.150;2022-10-16T01:51:55;28.60;99.90
17740;DHT22;8990;33.226;-97.150;2022-10-16T01:54:27;28.60;99.90
17740;DHT22;8990;33.226;-97.150;2022-10-16T01:56:58;28.50;99.90
17740;DHT22;8990;33.226;-97.150;2022-10-16T01:59:31;28.50;99.90
17740;DHT22;8990;33.226;-97.150;2022-10-16T02:02:05;28.50;99.90
17740;DHT22;8990;33.226;-97.150;2022-10-16T02:04:39;28.40;99.90
17740;DHT22;8990;33.226;-97.150;2022-10-16T02:07:09;28.30;99.90
17740;DHT22;8990;33.226;-97.150;2022-10-16T02:09:39;28.30;99.90
17740;DHT22;8990;33.226;-97.150;2022-10-16T02:12:12;28.30;99.90
17740;DHT22;8990;33.226;-97.150;2022-10-16T02:14:44;28.30;99.90
17740;DHT22;8990;33.226;-97.150;2022-10-16T02:17:15;28.30;99.90
17740;DHT22;8990;33.226;-97.150;2022-10-16T02:19:45;28.20;99.90
17740;DHT22;8990;33.226;-97.150;2022-10-16T02:22:18;28.30;99.90
17740;DHT22;8990;33.226;-97.150;2022-10-16T02:24:53;28.20;99.90
17740;DHT22;8990;33.226;-97.150;2022-10-16T02:27:27;28.20;99.90
17740;DHT22;8990;33.226;-97.150;2022-10-16T02:30:05;28.10;99.90
17740;DHT22;8990;33.226;-97.150;2022-10-16T02:32:38;28.10;99.90
17740;DHT22;8990;33.226;-97.150;2022-10-16T02:35:09;28.10;99.90
17740;DHT22;8990;33.226;-97.150;2022-10-16T02:37:40;28.10;99.90
17740;DHT22;8990;33.226;-97.150;2022-10-16T02:40:10;28.10;99.90
17740;DHT22;8990;33.226;-97.150;2022-10-16T02:42:41;28.00;99.90
17740;DHT22;8990;33.226;-97.150;2022-10-16T02:45:12;28.00;99.90
17740;DHT22;8990;33.226;-97.150;2022-10-16T02:47:42;28.00;99.90
17740;DHT22;8990;33.226;-97.150;2022-10-16T02:50:12;28.00;99.90
17740;DHT22;8990;33.226;-97.150;2022-10-16T02:52:42;27.90;99.90
17740;DHT22;8990;33.226;-97.150;2022-10-16T02:55:12;27.90;99.90
17740;DHT22;8990;33.226;-97.150;2022-10-16T02:57:41;27.80;99.90
17740;DHT22;8990;33.226;-97.150;2022-10-16T03:00:14;27.80;99.90
17740;DHT22;8990;33.226;-97.150;2022-10-16T03:02:44;27.80;99.90
17740;DHT22;8990;33.226;-97.150;2022-10-16T03:05:13;27.70;99.90
17740;DHT22;8990;33.226;-97.150;2022-10-16T03:07:43;27.70;99.90
17740;DHT22;8990;33.226;-97.150;2022-10-16T03:10:12;27.60;99.90
17740;DHT22;8990;33.226;-97.150;2022-10-16T03:12:42;27.60;99.90
17740;DHT22;8990;33.226;-97.150;2022-10-16T03:15:13;27.60;99.90
17740;DHT22;8990;33.226;-97.150;2022-10-16T03:17:42;27.50;99.90
17740;DHT22;8990;33.226;-97.150;2022-10-16T03:20:12;27.50;99.90
17740;DHT22;8990;33.226;-97.150;2022-10-16T03:22:41;27.40;99.90
17740;DHT22;8990;33.226;-97.150;2022-10-16T03:25:11;27.40;99.90
17740;DHT22;8990;33.226;-97.150;2022-10-16T03:27:41;27.40;99.90
17740;DHT22;8990;33.226;-97.150;2022-10-16T03:30:12;27.40;99.90
17740;DHT22;8990;33.226;-97.150;2022-10-16T03:32:44;27.30;99.90
17740;DHT22;8990;33.226;-97.150;2022-10-16T03:35:14;27.30;99.90
17740;DHT22;8990;33.226;-97.150;2022-10-16T03:37:43;27.30;99.90
17740;DHT22;8990;33.226;-97.150;2022-10-16T03:40:13;27.20;99.90
17740;DHT22;8990;33.226;-97.150;2022-10-16T03:42:43;27.10;99.90
17740;DHT22;8990;33.226;-97.150;2022-10-16T03:45:14;27.10;99.90
17740;DHT22;8990;33.226;-97.150;2022-10-16T03:47:43;27.10;99.90
17740;DHT22;8990;33.226;-97.150;2022-10-16T03:50:14;27.10;99.90
17740;DHT22;8990;33.226;-97.150;2022-10-16T03:52:44;27.10;99.90
17740;DHT22;8990;33.226;-97.150;2022-10-16T03:55:13;27.10;99.90
17740;DHT22;8990;33.226;-97.150;2022-10-16T03:57:42;27.00;99.90
17740;DHT22;8990;33.226;-97.150;2022-10-16T04:00:14;27.00;99.90
17740;DHT22;8990;33.226;-97.150;2022-10-16T04:02:44;27.00;99.90
17740;DHT22;8990;33.226;-97.150;2022-10-16T04:05:13;26.90;99.90
17740;DHT22;8990;33.226;-97.150;2022-10-16T04:07:42;26.90;99.90
17740;DHT22;8990;33.226;-97.150;2022-10-16T04:10:11;26.90;99.90
17740;DHT22;8990;33.226;-97.150;2022-10-16T04:12:40;26.80;99.90
17740;DHT22;8990;33.226;-97.150;2022-10-16T04:15:10;26.80;99.90
17740;DHT22;8990;33.226;-97.150;2022-10-16T04:17:41;26.70;99.90
17740;DHT22;8990;33.226;-97.150;2022-10-16T04:20:11;26.80;99.90
17740;DHT22;8990;33.226;-97.150;2022-10-16T04:22:41;26.70;99.90
17740;DHT22;8990;33.226;-97.150;2022-10-16T04:25:10;26.70;99.90
17740;DHT22;8990;33.226;-97.150;2022-10-16T04:27:40;26.70;99.90
17740;DHT22;8990;33.226;-97.150;2022-10-16T04:30:11;26.70;99.90
17740;DHT22;8990;33.226;-97.150;2022-10-16T04:32:42;26.60;99.90
17740;DHT22;8990;33.226;-97.150;2022-10-16T04:35:12;26.60;99.90
17740;DHT22;8990;33.226;-97.150;2022-10-16T04:37:41;26.60;99.90
17740;DHT22;8990;33.226;-97.150;2022-10-16T04:40:10;26.60;99.90
17740;DHT22;8990;33.226;-97.150;2022-10-16T04:42:39;26.60;99.90
17740;DHT22;8990;33.226;-97.150;2022-10-16T04:45:09;26.60;99.90
17740;DHT22;8990;33.226;-97.150;2022-10-16T04:47:38;26.60;99.90
17740;DHT22;8990;33.226;-97.150;2022-10-16T04:50:11;26.50;99.90
17740;DHT22;8990;33.226;-97.150;2022-10-16T04:52:58;26.50;99.90
17740;DHT22;8990;33.226;-97.150;2022-10-16T04:55:27;26.50;99.90
17740;DHT22;8990;33.226;-97.150;2022-10-16T04:57:57;26.50;99.90
17740;DHT22;8990;33.226;-97.150;2022-10-16T05:00:26;26.50;99.90
17740;DHT22;8990;33.226;-97.150;2022-10-16T05:02:55;26.40;99.90
17740;DHT22;8990;33.226;-97.150;2022-10-16T05:05:28;26.40;99.90
17740;DHT22;8990;33.226;-97.150;2022-10-16T05:07:56;26.40;99.90
17740;DHT22;8990;33.226;-97.150;2022-10-16T05:10:26;26.40;99.90
17740;DHT22;8990;33.226;-97.150;2022-10-16T05:12:55;26.30;99.90
17740;DHT22;8990;33.226;-97.150;2022-10-16T05:15:25;26.30;99.90
17740;DHT22;8990;33.226;-97.150;2022-10-16T05:17:55;26.20;99.90
17740;DHT22;8990;33.226;-97.150;2022-10-16T05:20:24;26.30;99.90
17740;DHT22;8990;33.226;-97.150;2022-10-16T05:22:56;26.20;99.90
17740;DHT22;8990;33.226;-97.150;2022-10-16T05:25:26;26.20;99.90
17740;DHT22;8990;33.226;-97.150;2022-10-16T05:27:55;26.20;99.90
17740;DHT22;8990;33.226;-97.150;2022-10-16T05:30:24;26.10;99.90
17740;DHT22;8990;33.226;-97.150;2022-10-16T05:32:53;26.10;99.90
17740;DHT22;8990;33.226;-97.150;2022-10-16T05:35:23;26.10;99.90
17740;DHT22;8990;33.226;-97.150;2022-10-16T05:37:53;26.10;99.90
17740;DHT22;8990;33.226;-97.150;2022-10-16T05:40:25;26.00;99.90
17740;DHT22;8990;33.226;-97.150;2022-10-16T05:42:55;26.00;99.90
17740;DHT22;8990;33.226;-97.150;2022-10-16T05:45:25;26.00;99.90
17740;DHT22;8990;33.226;-97.150;2022-10-16T05:47:58;26.00;99.90
17740;DHT22;8990;33.226;-97.150;2022-10-16T05:50:27;26.00;99.90
17740;DHT22;8990;33.226;-97.150;2022-10-16T05:52:57;26.00;99.90
17740;DHT22;8990;33.226;-97.150;2022-10-16T05:55:28;26.00;99.90
17740;DHT22;8990;33.226;-97.150;2022-10-16T05:57:57;25.90;99.90
17740;DHT22;8990;33.226;-97.150;2022-10-16T06:00:26;25.90;99.90
17740;DHT22;8990;33.226;-97.150;2022-10-16T06:02:55;25.90;99.90
17740;DHT22;8990;33.226;-97.150;2022-10-16T06:05:27;25.90;99.90
17740;DHT22;8990;33.226;-97.150;2022-10-16T06:07:56;25.90;99.90
17740;DHT22;8990;33.226;-97.150;2022-10-16T06:10:29;25.90;99.90
17740;DHT22;8990;33.226;-97.150;2022-10-16T06:12:58;25.90;99.90
17740;DHT22;8990;33.226;-97.150;2022-10-16T06:15:28;25.90;99.90
17740;DHT22;8990;33.226;-97.150;2022-10-16T06:17:57;25.80;99.90
17740;DHT22;8990;33.226;-97.150;2022-10-16T06:20:27;25.80;99.90
17740;DHT22;8990;33.226;-97.150;2022-10-16T06:22:58;25.80;99.90
17740;DHT22;8990;33.226;-97.150;2022-10-16T06:25:29;25.80;99.90
17740;DHT22;8990;33.226;-97.150;2022-10-16T06:28:00;25.80;99.90
17740;DHT22;8990;33.226;-97.150;2022-10-16T06:30:30;25.80;99.90
17740;DHT22;8990;33.226;-97.150;2022-10-16T06:32:58;25.80;99.90
17740;DHT22;8990;33.226;-97.150;2022-10-16T06:35:28;25.90;99.90
17740;DHT22;8990;33.226;-97.150;2022-10-16T06:37:59;25.90;99.90
17740;DHT22;8990;33.226;-97.150;2022-10-16T06:40:29;25.90;99.90
17740;DHT22;8990;33.226;-97.150;2022-10-16T06:42:58;25.90;99.90
17740;DHT22;8990;33.226;-97.150;2022-10-16T06:45:28;25.90;99.90
17740;DHT22;8990;33.226;-97.150;2022-10-16T06:47:57;25.90;99.90
17740;DHT22;8990;33.226;-97.150;2022-10-16T06:50:27;25.90;99.90
17740;DHT22;8990;33.226;-97.150;2022-10-16T06:52:56;25.80;99.90
17740;DHT22;8990;33.226;-97.150;2022-10-16T06:55:25;25.90;99.90
17740;DHT22;8990;33.226;-97.150;2022-10-16T06:57:57;25.90;99.90
17740;DHT22;8990;33.226;-97.150;2022-10-16T07:00:26;25.80;99.90
17740;DHT22;8990;33.226;-97.150;2022-10-16T07:02:55;25.80;99.90
17740;DHT22;8990;33.226;-97.150;2022-10-16T07:05:24;25.80;99.90
17740;DHT22;8990;33.226;-97.150;2022-10-16T07:07:53;25.80;99.90
17740;DHT22;8990;33.226;-97.150;2022-10-16T07:10:22;25.70;99.90
17740;DHT22;8990;33.226;-97.150;2022-10-16T07:12:52;25.70;99.90
17740;DHT22;8990;33.226;-97.150;2022-10-16T07:15:22;25.70;99.90
17740;DHT22;8990;33.226;-97.150;2022-10-16T07:17:53;25.60;99.90
17740;DHT22;8990;33.226;-97.150;2022-10-16T07:20:23;25.60;99.90
17740;DHT22;8990;33.226;-97.150;2022-10-16T07:22:52;25.50;99.90
17740;DHT22;8990;33.226;-97.150;2022-10-16T07:25:22;25.50;99.90
17740;DHT22;8990;33.226;-97.150;2022-10-16T07:27:51;25.50;99.90
17740;DHT22;8990;33.226;-97.150;2022-10-16T07:30:25;25.50;99.90
17740;DHT22;8990;33.226;-97.150;2022-10-16T07:32:54;25.50;99.90
17740;DHT22;8990;33.226;-97.150;2022-10-16T07:35:23;25.50;99.90
17740;DHT22;8990;33.226;-97.150;2022-10-16T07:37:52;25.50;99.90
17740;DHT22;8990;33.226;-97.150;2022-10-16T07:40:21;25.50;99.90
17740;DHT22;8990;33.226;-97.150;2022-10-16T07:42:53;25.50;99.90
17740;DHT22;8990;33.226;-97.150;2022-10-16T07:45:24;25.50;99.90
17740;DHT22;8990;33.226;-97.150;2022-10-16T07:47:54;25.50;99.90
17740;DHT22;8990;33.226;-97.150;2022-10-16T07:50:26;25.50;99.90
17740;DHT22;8990;33.226;-97.150;2022-10-16T07:52:55;25.50;99.90
17740;DHT22;8990;33.226;-97.150;2022-10-16T07:55:25;25.50;99.90
17740;DHT22;8990;33.226;-97.150;2022-10-16T07:57:54;25.50;99.90
17740;DHT22;8990;33.226;-97.150;2022-10-16T08:00:27;25.40;99.90
17740;DHT22;8990;33.226;-97.150;2022-10-16T08:02:57;25.40;99.90
17740;DHT22;8990;33.226;-97.150;2022-10-16T08:05:27;25.40;99.90
17740;DHT22;8990;33.226;-97.150;2022-10-16T08:07:56;25.30;99.90
17740;DHT22;8990;33.226;-97.150;2022-10-16T08:10:27;25.30;99.90
17740;DHT22;8990;33.226;-97.150;2022-10-16T08:12:58;25.40;99.90
17740;DHT22;8990;33.226;-97.150;2022-10-16T08:15:29;25.40;99.90
17740;DHT22;8990;33.226;-97.150;2022-10-16T08:18:00;25.30;99.90
17740;DHT22;8990;33.226;-97.150;2022-10-16T08:20:31;25.40;99.90
17740;DHT22;8990;33.226;-97.150;2022-10-16T08:23:04;25.40;99.90
17740;DHT22;8990;33.226;-97.150;2022-10-16T08:25:36;25.40;99.90
17740;DHT22;8990;33.226;-97.150;2022-10-16T08:28:07;25.30;99.90
17740;DHT22;8990;33.226;-97.150;2022-10-16T08:30:38;25.20;99.90
17740;DHT22;8990;33.226;-97.150;2022-10-16T08:33:07;25.20;99.90
17740;DHT22;8990;33.226;-97.150;2022-10-16T08:35:36;25.20;99.90
17740;DHT22;8990;33.226;-97.150;2022-10-16T08:38:06;25.10;99.90
17740;DHT22;8990;33.226;-97.150;2022-10-16T08:40:36;25.10;99.90
17740;DHT22;8990;33.226;-97.150;2022-10-16T08:43:22;25.10;99.90
17740;DHT22;8990;33.226;-97.150;2022-10-16T08:48:51;25.10;99.90
17740;DHT22;8990;33.226;-97.150;2022-10-16T08:51:24;24.90;99.90
17740;DHT22;8990;33.226;-97.150;2022-10-16T08:54:01;24.90;99.90
17740;DHT22;8990;33.226;-97.150;2022-10-16T08:56:32;25.00;99.90
17740;DHT22;8990;33.226;-97.150;2022-10-16T08:59:01;24.90;99.90
17740;DHT22;8990;33.226;-97.150;2022-10-16T09:01:41;25.00;99.90
17740;DHT22;8990;33.226;-97.150;2022-10-16T09:04:38;24.90;99.90
17740;DHT22;8990;33.226;-97.150;2022-10-16T09:07:17;24.50;99.90
17740;DHT22;8990;33.226;-97.150;2022-10-16T09:10:03;24.20;99.90
17740;DHT22;8990;33.226;-97.150;2022-10-16T09:12:42;23.90;99.90
17740;DHT22;8990;33.226;-97.150;2022-10-16T09:15:23;23.70;99.90
17740;DHT22;8990;33.226;-97.150;2022-10-16T09:18:02;23.60;99.90
17740;DHT22;8990;33.226;-97.150;2022-10-16T09:20:42;23.40;99.90
17740;DHT22;8990;33.226;-97.150;2022-10-16T09:23:17;22.90;99.90
17740;DHT22;8990;33.226;-97.150;2022-10-16T09:25:48;22.30;99.90
17740;DHT22;8990;33.226;-97.150;2022-10-16T09:28:19;21.80;99.90
17740;DHT22;8990;33.226;-97.150;2022-10-16T09:30:50;21.40;99.90
17740;DHT22;8990;33.226;-97.150;2022-10-16T09:33:23;21.20;99.90
17740;DHT22;8990;33.226;-97.150;2022-10-16T09:35:55;21.00;99.90
17740;DHT22;8990;33.226;-97.150;2022-10-16T09:38:27;20.80;99.90
17740;DHT22;8990;33.226;-97.150;2022-10-16T09:40:58;20.60;99.90
17740;DHT22;8990;33.226;-97.150;2022-10-16T09:43:37;20.50;99.90
17740;DHT22;8990;33.226;-97.150;2022-10-16T09:46:21;20.30;99.90
17740;DHT22;8990;33.226;-97.150;2022-10-16T09:48:55;20.00;99.90
17740;DHT22;8990;33.226;-97.150;2022-10-16T09:51:26;20.00;99.90
17740;DHT22;8990;33.226;-97.150;2022-10-16T09:53:58;19.90;99.90
17740;DHT22;8990;33.226;-97.150;2022-10-16T09:56:33;19.80;99.90
17740;DHT22;8990;33.226;-97.150;2022-10-16T09:59:10;19.60;99.90
17740;DHT22;8990;33.226;-97.150;2022-10-16T10:01:42;19.60;99.90
17740;DHT22;8990;33.226;-97.150;2022-10-16T10:04:15;19.60;99.90
17740;DHT22;8990;33.226;-97.150;2022-10-16T10:06:46;19.50;99.90
17740;DHT22;8990;33.226;-97.150;2022-10-16T10:09:19;19.30;99.90
17740;DHT22;8990;33.226;-97.150;2022-10-16T10:11:52;19.30;99.90
17740;DHT22;8990;33.226;-97.150;2022-10-16T10:14:26;19.20;99.90
17740;DHT22;8990;33.226;-97.150;2022-10-16T10:17:12;19.20;99.90
17740;DHT22;8990;33.226;-97.150;2022-10-16T10:19:49;19.10;99.90
17740;DHT22;8990;33.226;-97.150;2022-10-16T10:22:24;19.20;99.90
17740;DHT22;8990;33.226;-97.150;2022-10-16T10:25:31;19.00;99.90
17740;DHT22;8990;33.226;-97.150;2022-10-16T10:31:10;18.90;99.90
17740;DHT22;8990;33.226;-97.150;2022-10-16T10:33:47;18.80;99.90
17740;DHT22;8990;33.226;-97.150;2022-10-16T10:36:29;18.80;99.90
17740;DHT22;8990;33.226;-97.150;2022-10-16T10:39:01;18.80;99.90
17740;DHT22;8990;33.226;-97.150;2022-10-16T10:41:57;18.60;99.90
17740;DHT22;8990;33.226;-97.150;2022-10-16T10:44:45;18.60;99.90
17740;DHT22;8990;33.226;-97.150;2022-10-16T10:47:29;18.60;99.90
17740;DHT22;8990;33.226;-97.150;2022-10-16T10:50:07;18.50;99.90
17740;DHT22;8990;33.226;-97.150;2022-10-16T10:52:51;18.50;99.90
17740;DHT22;8990;33.226;-97.150;2022-10-16T10:55:28;18.60;99.90
17740;DHT22;8990;33.226;-97.150;2022-10-16T11:01:08;18.60;99.90
17740;DHT22;8990;33.226;-97.150;2022-10-16T11:03:54;18.60;99.90
17740;DHT22;8990;33.226;-97.150;2022-10-16T11:06:31;18.60;99.90
17740;DHT22;8990;33.226;-97.150;2022-10-16T11:09:10;18.50;99.90
17740;DHT22;8990;33.226;-97.150;2022-10-16T11:11:44;18.60;99.90
17740;DHT22;8990;33.226;-97.150;2022-10-16T11:14:18;18.50;99.90
17740;DHT22;8990;33.226;-97.150;2022-10-16T11:16:53;18.50;99.90
17740;DHT22;8990;33.226;-97.150;2022-10-16T11:19:32;18.40;99.90
17740;DHT22;8990;33.226;-97.150;2022-10-16T11:22:09;18.40;99.90
17740;DHT22;8990;33.226;-97.150;2022-10-16T11:24:46;18.40;99.90
17740;DHT22;8990;33.226;-97.150;2022-10-16T11:27:20;18.40;99.90
17740;DHT22;8990;33.226;-97.150;2022-10-16T11:29:55;18.40;99.90
17740;DHT22;8990;33.226;-97.150;2022-10-16T11:32:31;18.50;99.90
17740;DHT22;8990;33.226;-97.150;2022-10-16T11:35:14;18.50;99.90
17740;DHT22;8990;33.226;-97.150;2022-10-16T11:37:49;18.50;99.90
17740;DHT22;8990;33.226;-97.150;2022-10-16T11:40:25;18.50;99.90
17740;DHT22;8990;33.226;-97.150;2022-10-16T11:43:03;18.50;99.90
17740;DHT22;8990;33.226;-97.150;2022-10-16T11:45:41;18.60;99.90
17740;DHT22;8990;33.226;-97.150;2022-10-16T11:48:20;18.50;99.90
17740;DHT22;8990;33.226;-97.150;2022-10-16T11:50:53;18.50;99.90
17740;DHT22;8990;33.226;-97.150;2022-10-16T11:53:35;18.50;99.90
17740;DHT22;8990;33.226;-97.150;2022-10-16T11:56:12;18.50;99.90
17740;DHT22;8990;33.226;-97.150;2022-10-16T11:58:52;18.50;99.90
17740;DHT22;8990;33.226;-97.150;2022-10-16T12:01:30;18.50;99.90
17740;DHT22;8990;33.226;-97.150;2022-10-16T12:04:11;18.50;99.90
17740;DHT22;8990;33.226;-97.150;2022-10-16T12:06:45;18.50;99.90
17740;DHT22;8990;33.226;-97.150;2022-10-16T12:09:22;18.40;99.90
17740;DHT22;8990;33.226;-97.150;2022-10-16T12:11:54;18.50;99.90
17740;DHT22;8990;33.226;-97.150;2022-10-16T12:14:38;18.50;99.90
17740;DHT22;8990;33.226;-97.150;2022-10-16T12:17:25;18.60;99.90
17740;DHT22;8990;33.226;-97.150;2022-10-16T12:19:59;18.70;99.90
17740;DHT22;8990;33.226;-97.150;2022-10-16T12:22:30;18.60;99.90
17740;DHT22;8990;33.226;-97.150;2022-10-16T12:25:00;18.60;99.90
17740;DHT22;8990;33.226;-97.150;2022-10-16T12:27:32;18.50;99.90
17740;DHT22;8990;33.226;-97.150;2022-10-16T12:30:04;18.50;99.90
17740;DHT22;8990;33.226;-97.150;2022-10-16T12:32:37;18.50;99.90
17740;DHT22;8990;33.226;-97.150;2022-10-16T12:35:19;18.50;99.90
17740;DHT22;8990;33.226;-97.150;2022-10-16T12:37:49;18.60;99.90
17740;DHT22;8990;33.226;-97.150;2022-10-16T12:40:26;18.50;99.90
17740;DHT22;8990;33.226;-97.150;2022-10-16T12:43:10;18.50;99.90
17740;DHT22;8990;33.226;-97.150;2022-10-16T12:45:39;18.50;99.90
17740;DHT22;8990;33.226;-97.150;2022-10-16T12:48:20;18.40;99.90
17740;DHT22;8990;33.226;-97.150;2022-10-16T12:50:51;18.40;99.90
17740;DHT22;8990;33.226;-97.150;2022-10-16T12:53:21;18.40;99.90
17740;DHT22;8990;33.226;-97.150;2022-10-16T12:55:59;18.40;99.90
17740;DHT22;8990;33.226;-97.150;2022-10-16T12:58:53;18.40;99.90
17740;DHT22;8990;33.226;-97.150;2022-10-16T13:01:49;18.30;99.90
17740;DHT22;8990;33.226;-97.150;2022-10-16T13:04:41;18.30;99.90
17740;DHT22;8990;33.226;-97.150;2022-10-16T13:07:26;18.30;99.90
17740;DHT22;8990;33.226;-97.150;2022-10-16T13:10:08;18.30;99.90
17740;DHT22;8990;33.226;-97.150;2022-10-16T13:12:57;18.30;99.90
17740;DHT22;8990;33.226;-97.150;2022-10-16T13:15:41;18.40;99.90
17740;DHT22;8990;33.226;-97.150;2022-10-16T13:18:19;18.40;99.90
17740;DHT22;8990;33.226;-97.150;2022-10-16T13:21:01;18.60;99.90
17740;DHT22;8990;33.226;-97.150;2022-10-16T13:23:37;18.60;99.90
17740;DHT22;8990;33.226;-97.150;2022-10-16T13:26:17;18.50;99.90
17740;DHT22;8990;33.226;-97.150;2022-10-16T13:28:50;18.50;99.90
17740;DHT22;8990;33.226;-97.150;2022-10-16T13:31:23;18.40;99.90
17740;DHT22;8990;33.226;-97.150;2022-10-16T13:33:55;18.30;99.90
17740;DHT22;8990;33.226;-97.150;2022-10-16T13:36:27;18.40;99.90
17740;DHT22;8990;33.226;-97.150;2022-10-16T13:39:06;18.30;99.90
17740;DHT22;8990;33.226;-97.150;2022-10-16T13:42:02;18.30;99.90
17740;DHT22;8990;33.226;-97.150;2022-10-16T13:44:38;18.40;99.90
17740;DHT22;8990;33.226;-97.150;2022-10-16T13:47:16;18.50;99.90
17740;DHT22;8990;33.226;-97.150;2022-10-16T13:49:46;18.50;99.90
17740;DHT22;8990;33.226;-97.150;2022-10-16T13:52:19;18.50;99.90
17740;DHT22;8990;33.226;-97.150;2022-10-16T13:54:49;18.60;99.90
17740;DHT22;8990;33.226;-97.150;2022-10-16T13:57:18;18.60;99.90
17740;DHT22;8990;33.226;-97.150;2022-10-16T13:59:53;18.70;99.90
17740;DHT22;8990;33.226;-97.150;2022-10-16T14:02:27;18.70;99.90
17740;DHT22;8990;33.226;-97.150;2022-10-16T14:04:58;18.80;99.90
17740;DHT22;8990;33.226;-97.150;2022-10-16T14:07:28;18.90;99.90
17740;DHT22;8990;33.226;-97.150;2022-10-16T14:10:02;19.00;99.90
17740;DHT22;8990;33.226;-97.150;2022-10-16T14:12:31;19.10;99.90
17740;DHT22;8990;33.226;-97.150;2022-10-16T14:15:01;19.20;99.90
17740;DHT22;8990;33.226;-97.150;2022-10-16T14:17:34;19.30;99.90
17740;DHT22;8990;33.226;-97.150;2022-10-16T14:20:06;19.40;99.90
17740;DHT22;8990;33.226;-97.150;2022-10-16T14:22:43;19.60;99.90
17740;DHT22;8990;33.226;-97.150;2022-10-16T14:25:24;19.70;99.90
17740;DHT22;8990;33.226;-97.150;2022-10-16T14:28:00;19.70;99.90
17740;DHT22;8990;33.226;-97.150;2022-10-16T14:30:30;19.70;99.90
17740;DHT22;8990;33.226;-97.150;2022-10-16T14:33:02;19.90;99.90
17740;DHT22;8990;33.226;-97.150;2022-10-16T14:35:33;19.90;99.90
17740;DHT22;8990;33.226;-97.150;2022-10-16T14:38:05;19.80;99.90
17740;DHT22;8990;33.226;-97.150;2022-10-16T14:40:36;19.90;99.90
17740;DHT22;8990;33.226;-97.150;2022-10-16T14:43:06;20.00;99.90
17740;DHT22;8990;33.226;-97.150;2022-10-16T14:45:35;20.10;99.90
17740;DHT22;8990;33.226;-97.150;2022-10-16T14:48:17;20.20;99.90
17740;DHT22;8990;33.226;-97.150;2022-10-16T14:50:48;20.30;99.90
17740;DHT22;8990;33.226;-97.150;2022-10-16T14:53:16;20.30;99.90
17740;DHT22;8990;33.226;-97.150;2022-10-16T14:55:47;20.40;99.90
17740;DHT22;8990;33.226;-97.150;2022-10-16T14:58:19;20.40;99.90
17740;DHT22;8990;33.226;-97.150;2022-10-16T15:00:49;20.50;99.90
17740;DHT22;8990;33.226;-97.150;2022-10-16T15:03:20;20.30;99.90
17740;DHT22;8990;33.226;-97.150;2022-10-16T15:05:49;20.30;99.90
17740;DHT22;8990;33.226;-97.150;2022-10-16T15:08:19;20.30;99.90
17740;DHT22;8990;33.226;-97.150;2022-10-16T15:10:48;20.30;99.90
17740;DHT22;8990;33.226;-97.150;2022-10-16T15:13:17;20.40;99.90
17740;DHT22;8990;33.226;-97.150;2022-10-16T15:15:47;20.30;99.90
17740;DHT22;8990;33.226;-97.150;2022-10-16T15:18:17;20.40;99.90
17740;DHT22;8990;33.226;-97.150;2022-10-16T15:20:50;20.40;99.90
17740;DHT22;8990;33.226;-97.150;2022-10-16T15:23:21;20.50;99.90
17740;DHT22;8990;33.226;-97.150;2022-10-16T15:25:52;20.50;99.90
17740;DHT22;8990;33.226;-97.150;2022-10-16T15:28:22;20.60;99.90
17740;DHT22;8990;33.226;-97.150;2022-10-16T15:30:54;20.60;99.90
17740;DHT22;8990;33.226;-97.150;2022-10-16T15:33:25;20.70;99.90
17740;DHT22;8990;33.226;-97.150;2022-10-16T15:36:01;20.70;99.90
17740;DHT22;8990;33.226;-97.150;2022-10-16T15:38:32;20.70;99.90
17740;DHT22;8990;33.226;-97.150;2022-10-16T15:41:02;20.70;99.90
17740;DHT22;8990;33.226;-97.150;2022-10-16T15:43:30;20.80;99.90
17740;DHT22;8990;33.226;-97.150;2022-10-16T15:46:02;20.80;99.90
17740;DHT22;8990;33.226;-97.150;2022-10-16T15:48:32;20.60;99.90
17740;DHT22;8990;33.226;-97.150;2022-10-16T15:51:07;20.70;99.90
17740;DHT22;8990;33.226;-97.150;2022-10-16T15:53:36;20.70;99.90
17740;DHT22;8990;33.226;-97.150;2022-10-16T15:56:06;20.70;99.90
17740;DHT22;8990;33.226;-97.150;2022-10-16T15:58:35;20.70;99.90
17740;DHT22;8990;33.226;-97.150;2022-10-16T16:01:06;20.80;99.90